Tolovana Park, OR (97145)

6:56 PM PDT on October 21, 2014 (GMT -0700)
Ocean Vista Dr | Change Station
CLOSE
Current Station
Personal Weather Station
Location: Seaside, OR
Elevation: 16 ft
Nearby Weather Stations

Elev 16 ft 45.98 °N, 123.93 °W | Updated 9 seconds ago

Overcast
Overcast
58.2 °F
Feels Like 58.2 °F
N
3.9
Wind Variable Wind from South
Gusts 15.0 mph

Today
High -- | Low -- °F
--% Chance of Precip.
Yesterday
High -- | Low -- °F
Precip. -- in
7:40 AM 6:19 PM
Waning Crescent, 3% visible
Pressure 29.84 in
Visibility 10.0 miles
Clouds Mostly Cloudy 3400 ft
Mostly Cloudy 4200 ft
Overcast 5000 ft
Dew Point 53 °F
Humidity 84%
Rainfall 0.20 in
Snow Depth Not available.
UV 0.0 out of 12
Pollen .40 out of 12
Air Quality Not available.
Flu Activity Sporadic
METAR KAST 220055Z AUTO 18011G21KT 10SM BKN034 BKN042 OVC050 16/10 A2984 RMK AO2 RAB16E29 SLP105 P0000 T01560100

More Conditions Fewer Conditions

Pressure 29.84 in
Visibility 10.0 miles
Clouds Mostly Cloudy 3400 ft
Mostly Cloudy 4200 ft
Overcast 5000 ft
Dew Point 53 °F
Humidity 84%
Rainfall 0.20 in
Snow Depth Not available.
UV 0.0 out of 12
Pollen .40 out of 12
Air Quality Not available.
Flu Activity Sporadic
METAR KAST 220055Z AUTO 18011G21KT 10SM BKN034 BKN042 OVC050 16/10 A2984 RMK AO2 RAB16E29 SLP105 P0000 T01560100

More Conditions Fewer Conditions

10-Day Weather Forecast

Almanac

Astronomy

Oct. 21, 2014 Rise Set
Actual Time 7:40 AM PDT 6:19 PM PDT
Civil Twilight 7:10 AM PDT 6:49 PM PDT
Nautical Twilight 6:35 AM PDT 7:24 PM PDT
Astronomical Twilight 6:01 AM PDT 7:58 PM PDT
Moon 5:23 AM PDT (10/21) 5:21 PM PDT (10/21)
Length of Visible Light 11h 39m
Length of Day
10h 38m
Tomorrow will be 3m 4s shorter.
Waning Crescent, 3% of the Moon is Illuminated
Today
Waning Crescent
Oct 23
New
Oct 30
First Quarter
Nov 6
Full
Nov 14
Last Quarter

Today's Extremes

State Highs State Lows

Community

WunderPhotos

Upload Photos

1,763,843 photos uploaded!

Nearby

Snow Depth

Station Depth Elevation
Seine Creek 0 in 2000 ft
North Fork 0 in 3120 ft
Greenpoint 0 in 3200 ft
Red Hill 0 in 4400 ft
Peavine Ridge 0 in 3500 ft

Earthquake Activity

City Distance Mag. Time & Date
No recent earthquake activity has been reported nearby.
Minimum magnitude displayed is 2.5.

Coastal Water Temperatures

Place Temperature
Astoria, OR 62.1 °F
Westport, WA 60.1 °F

Nearby Weather Stations